Mount Pleasant, MI

4:54 AM EST on February 12, 2016 (GMT -0500)
Mount Pleasant (North) | | Change Station
CLOSE
Current Station
Personal Weather Station
Location: Mount Pleasant, MI
Elevation: 784 ft
Nearby Weather Stations

Elev 784 ft 43.61 °N, 84.77 °W | Updated 1 hour ago

Overcast
Overcast
16.0 °F
Feels Like 10 °F
N
3.8
Wind Variable Wind from SW
Gusts 6.9 mph

Today
High -- | Low -- °F
--% Chance of Precip.
Yesterday
High -- | Low -- °F
Precip. -- in
Pressure 30.03 in
Visibility 10.0 miles
Clouds Overcast 8500 ft
Windchill 10 °F
Dew Point 2 °F
Humidity 53%
Rainfall 0.00 in
Snow Depth Not available.
7:42 AM 6:04 PM
Waxing Crescent, 19% visible
METAR KMOP 120935Z AUTO 23007KT 10SM OVC085 M08/M13 A3003 RMK AO2 T10771127
Pressure 30.03 in
Visibility 10.0 miles
Clouds Overcast 8500 ft
Windchill 10 °F
Dew Point 2 °F
Humidity 53%
Rainfall 0.00 in
Snow Depth Not available.
7:42 AM 6:04 PM
Waxing Crescent, 19% visible
METAR KMOP 120935Z AUTO 23007KT 10SM OVC085 M08/M13 A3003 RMK AO2 T10771127

10-Day Weather Forecast

Almanac

Astronomy

Feb. 12, 2016 Rise Set
Actual Time
Civil Twilight
Nautical Twilight
Astronomical Twilight
Moon
Length of Visible Light
Length of Day
Tomorrow will be .
, % of the Moon is Illuminated

Today's Extremes

State Highs State Lows

Community

WunderPhotos

Upload Photos

1,892,286 photos uploaded!

WunderBlog® & News

Nearby

Air Quality

  Air Quality AQ Index Pollutant
Not available.

Snow Depth

Station Depth Elevation

Earthquake Activity

City Distance Mag. Time & Date
Minimum magnitude displayed is 2.5.

Coastal Water Temperatures

Place Temperature

Stations

Nearby Weather Stations

Station Location Temp. Windchill Dew Point Humidity Wind Precip. Elev Updated Type
                   

Watches & Warnings

There are currently no watches in effect.